createdAt,value
2022-11-01T00:02:14.707Z,39.08
2022-11-01T00:04:42.240Z,39.24
2022-11-01T00:07:09.770Z,39.13
2022-11-01T00:09:37.314Z,39.01
2022-11-01T00:12:05.081Z,39.33
2022-11-01T00:14:33.600Z,39.39
2022-11-01T00:17:01.033Z,39.41
2022-11-01T00:19:28.608Z,39.38
2022-11-01T00:21:56.040Z,39.41
2022-11-01T00:24:23.710Z,39.30
2022-11-01T00:26:51.219Z,39.59
2022-11-01T00:29:18.814Z,39.35
2022-11-01T00:31:46.198Z,39.55
2022-11-01T00:34:16.400Z,39.55
2022-11-01T00:36:44.054Z,39.64
2022-11-01T00:39:16.634Z,39.62
2022-11-01T00:41:44.215Z,39.54
2022-11-01T00:44:11.736Z,39.79
2022-11-01T00:46:39.202Z,39.73
2022-11-01T00:49:08.746Z,39.81
2022-11-01T00:51:36.203Z,39.91
2022-11-01T00:54:05.924Z,39.91
2022-11-01T00:56:33.341Z,39.88
2022-11-01T00:59:03.009Z,39.69
2022-11-01T01:01:32.546Z,39.74
2022-11-01T01:04:00.260Z,40.02
2022-11-01T01:06:27.795Z,39.97
2022-11-01T01:08:58.924Z,39.87
2022-11-01T01:11:28.275Z,40.23
2022-11-01T01:13:55.937Z,39.93
2022-11-01T01:16:23.488Z,39.97
2022-11-01T01:18:51.663Z,40.19
2022-11-01T01:21:20.331Z,40.15
2022-11-01T01:23:48.759Z,40.50
2022-11-01T01:26:17.573Z,40.13
2022-11-01T01:28:45.122Z,40.19
2022-11-01T01:31:14.022Z,40.18
2022-11-01T01:33:41.712Z,40.15
2022-11-01T01:36:09.720Z,40.18
2022-11-01T01:38:37.208Z,40.27
2022-11-01T01:41:23.717Z,40.14
2022-11-01T01:43:51.389Z,40.21
2022-11-01T01:46:21.423Z,40.20
2022-11-01T01:48:52.900Z,40.39
2022-11-01T01:51:24.708Z,40.25
2022-11-01T01:53:54.073Z,40.44
2022-11-01T01:56:28.416Z,40.53
2022-11-01T01:59:05.263Z,40.48
2022-11-01T02:01:35.335Z,40.53
2022-11-01T02:04:04.302Z,40.46
2022-11-01T02:06:32.656Z,40.55
2022-11-01T02:09:01.965Z,40.57
2022-11-01T02:11:30.543Z,40.59
2022-11-01T02:13:58.797Z,40.59
2022-11-01T02:16:39.040Z,41.04
2022-11-01T02:19:34.664Z,41.36
2022-11-01T02:22:20.428Z,41.02
2022-11-01T02:25:13.130Z,40.70
2022-11-01T02:27:44.423Z,40.79
2022-11-01T02:30:22.007Z,41.07
2022-11-01T02:32:49.381Z,41.06
2022-11-01T02:35:59.131Z,41.36
2022-11-01T02:38:29.435Z,40.87
2022-11-01T02:41:03.585Z,40.93
2022-11-01T02:43:41.309Z,41.03
2022-11-01T02:46:28.081Z,41.05
2022-11-01T02:48:56.960Z,41.08
2022-11-01T02:51:26.914Z,41.18
2022-11-01T02:53:54.267Z,41.12
2022-11-01T02:56:22.814Z,41.18
2022-11-01T02:58:51.893Z,41.15
2022-11-01T03:01:23.020Z,41.38
2022-11-01T03:03:52.356Z,41.15
2022-11-01T03:06:39.080Z,41.96
2022-11-01T03:09:10.141Z,41.40
2022-11-01T03:11:40.699Z,41.34
2022-11-01T03:14:26.255Z,41.29
2022-11-01T03:17:00.655Z,41.56
2022-11-01T03:19:52.034Z,42.26
2022-11-01T03:22:29.028Z,41.49
2022-11-01T03:25:35.344Z,41.60
2022-11-01T03:28:21.913Z,41.83
2022-11-01T03:31:03.643Z,41.96
2022-11-01T03:33:33.244Z,41.44
2022-11-01T03:36:13.465Z,41.72
2022-11-01T03:38:46.336Z,41.71
2022-11-01T03:41:16.657Z,41.64
2022-11-01T03:43:44.082Z,41.56
2022-11-01T03:46:13.816Z,41.52
2022-11-01T03:48:41.597Z,41.65
2022-11-01T03:51:11.112Z,41.68
2022-11-01T03:53:38.521Z,41.66
2022-11-01T03:56:07.519Z,41.81
2022-11-01T03:58:45.179Z,41.89
2022-11-01T04:01:14.787Z,41.97
2022-11-01T04:03:42.557Z,41.94
2022-11-01T04:06:10.237Z,41.76
2022-11-01T04:08:37.794Z,41.83
2022-11-01T04:11:05.347Z,42.13
2022-11-01T04:13:32.951Z,42.04
2022-11-01T04:16:19.177Z,41.86
2022-11-01T04:19:11.253Z,41.94
2022-11-01T04:21:38.900Z,42.10
2022-11-01T04:24:08.258Z,42.11
2022-11-01T04:26:35.923Z,42.03
2022-11-01T04:29:03.604Z,42.44
2022-11-01T04:31:36.238Z,42.23
2022-11-01T04:34:04.938Z,42.07
2022-11-01T04:36:33.438Z,42.03
2022-11-01T04:39:00.895Z,42.32
2022-11-01T04:41:29.720Z,42.35
2022-11-01T04:43:59.768Z,42.32
2022-11-01T04:46:31.790Z,42.36
2022-11-01T04:48:59.397Z,42.52
2022-11-01T04:51:27.039Z,42.21
2022-11-01T04:53:54.550Z,42.29
2022-11-01T04:56:22.138Z,42.40
2022-11-01T04:58:49.681Z,42.31
2022-11-01T05:01:17.200Z,42.35
2022-11-01T05:03:44.874Z,42.44
2022-11-01T05:06:14.377Z,42.27
2022-11-01T05:08:41.743Z,42.44
2022-11-01T05:11:09.422Z,42.47
2022-11-01T05:13:36.848Z,42.32
2022-11-01T05:16:21.101Z,42.60
2022-11-01T05:18:48.903Z,42.37
2022-11-01T05:21:18.163Z,42.41
2022-11-01T05:23:51.491Z,42.92
2022-11-01T05:26:19.687Z,42.42
2022-11-01T05:28:48.069Z,42.78
2022-11-01T05:31:15.488Z,42.52
2022-11-01T05:33:45.025Z,42.60
2022-11-01T05:36:12.511Z,42.57
2022-11-01T05:38:41.028Z,42.65
2022-11-01T05:41:08.505Z,42.70
2022-11-01T05:43:36.982Z,42.64
2022-11-01T05:46:05.732Z,42.71
2022-11-01T05:48:34.001Z,42.91
2022-11-01T05:51:01.371Z,42.98
2022-11-01T05:53:32.602Z,43.00
2022-11-01T05:56:00.089Z,42.74
2022-11-01T05:58:31.660Z,43.27
2022-11-01T06:00:59.900Z,42.85
2022-11-01T06:03:27.684Z,42.88
2022-11-01T06:05:57.789Z,43.03
2022-11-01T06:08:25.952Z,42.93
2022-11-01T06:11:12.606Z,43.47
2022-11-01T06:13:39.939Z,42.91
2022-11-01T06:16:08.064Z,42.97
2022-11-01T06:18:35.573Z,43.09
2022-11-01T06:21:05.062Z,43.11
2022-11-01T06:23:32.456Z,43.06
2022-11-01T06:26:01.474Z,43.17
2022-11-01T06:28:28.934Z,42.98
2022-11-01T06:31:00.966Z,43.15
2022-11-01T06:33:29.964Z,43.12
2022-11-01T06:35:58.558Z,43.48
2022-11-01T06:38:26.380Z,43.09
2022-11-01T06:40:56.824Z,43.08
2022-11-01T06:43:24.326Z,43.21
2022-11-01T06:45:51.823Z,43.31
2022-11-01T06:48:19.367Z,43.60
2022-11-01T06:50:47.021Z,43.63
2022-11-01T06:53:14.524Z,43.53
2022-11-01T06:55:42.164Z,43.62
2022-11-01T06:58:09.640Z,43.56
2022-11-01T07:00:37.248Z,43.39
2022-11-01T07:03:10.515Z,43.53
2022-11-01T07:05:38.936Z,43.66
2022-11-01T07:08:09.155Z,43.50
2022-11-01T07:10:38.307Z,43.79
2022-11-01T07:13:07.451Z,43.66
2022-11-01T07:15:35.046Z,43.75
2022-11-01T07:18:04.792Z,43.73
2022-11-01T07:20:41.562Z,43.64
2022-11-01T07:23:15.543Z,43.67
2022-11-01T07:25:43.669Z,43.46
2022-11-01T07:28:11.270Z,43.75
2022-11-01T07:30:39.441Z,43.58
2022-11-01T07:33:07.225Z,43.70
2022-11-01T07:35:35.702Z,43.90
2022-11-01T07:38:08.013Z,43.92
2022-11-01T07:40:40.596Z,43.73
2022-11-01T07:43:09.317Z,43.66
2022-11-01T07:45:37.006Z,43.73
2022-11-01T07:48:10.261Z,43.70
2022-11-01T07:50:38.794Z,43.97
2022-11-01T07:53:08.997Z,43.78
2022-11-01T07:55:36.718Z,43.93
2022-11-01T07:58:05.569Z,43.95
2022-11-01T08:00:33.388Z,44.02
2022-11-01T08:03:09.699Z,44.03
2022-11-01T08:05:42.114Z,43.92
2022-11-01T08:08:10.365Z,43.81
2022-11-01T08:10:39.295Z,43.91
2022-11-01T08:13:07.874Z,43.86
2022-11-01T08:15:36.022Z,43.79
2022-11-01T08:18:03.880Z,43.95
2022-11-01T08:20:31.953Z,44.07
2022-11-01T08:22:59.588Z,43.89
2022-11-01T08:25:27.039Z,44.03
2022-11-01T08:27:54.541Z,43.76
2022-11-01T08:30:22.736Z,44.11
2022-11-01T08:32:58.716Z,44.08
2022-11-01T08:35:26.918Z,43.99
2022-11-01T08:37:54.813Z,43.95
2022-11-01T08:40:22.749Z,44.09
2022-11-01T08:42:50.334Z,44.19
2022-11-01T08:45:17.991Z,44.35
2022-11-01T08:47:45.788Z,44.57
2022-11-01T08:50:15.851Z,44.18
2022-11-01T08:52:43.428Z,44.66
2022-11-01T08:55:11.659Z,44.59
2022-11-01T08:57:39.196Z,44.48
2022-11-01T09:00:07.300Z,44.48
2022-11-01T09:02:34.947Z,44.60
2022-11-01T09:05:05.269Z,44.40
2022-11-01T09:07:34.805Z,44.35
2022-11-01T09:10:02.454Z,44.39
2022-11-01T09:12:29.913Z,44.57
2022-11-01T09:14:57.539Z,44.58
2022-11-01T09:17:24.953Z,44.42
2022-11-01T09:19:52.628Z,44.44
2022-11-01T09:22:20.045Z,44.17
2022-11-01T09:24:47.580Z,44.41
2022-11-01T09:27:16.445Z,44.16
2022-11-01T09:29:46.576Z,44.19
2022-11-01T09:32:17.737Z,44.21
2022-11-01T09:34:45.451Z,44.15
2022-11-01T09:37:12.807Z,44.01
2022-11-01T09:39:40.296Z,43.85
2022-11-01T09:42:32.503Z,43.92
2022-11-01T09:45:16.189Z,43.74
2022-11-01T09:47:46.207Z,43.78
2022-11-01T09:50:30.195Z,43.82
2022-11-01T09:52:57.854Z,43.53
2022-11-01T09:55:56.306Z,43.30
2022-11-01T09:58:30.283Z,43.11
2022-11-01T10:01:07.158Z,43.10
2022-11-01T10:03:51.928Z,42.98
2022-11-01T10:06:25.313Z,42.88
2022-11-01T10:09:14.250Z,42.90
2022-11-01T10:11:54.478Z,42.65
2022-11-01T10:14:45.681Z,42.73
2022-11-01T10:17:15.585Z,42.53
2022-11-01T10:19:47.368Z,42.43
2022-11-01T10:22:28.381Z,42.20
2022-11-01T10:25:04.867Z,42.11
2022-11-01T10:27:47.326Z,42.03
2022-11-01T10:30:16.702Z,41.87
2022-11-01T10:32:54.980Z,41.75
2022-11-01T10:35:30.688Z,41.56
2022-11-01T10:38:49.654Z,41.48
2022-11-01T10:41:10.477Z,41.41
2022-11-01T10:43:43.382Z,40.90
2022-11-01T10:46:14.779Z,40.80
2022-11-01T10:48:45.499Z,40.51
2022-11-01T10:51:15.809Z,40.27
2022-11-01T10:53:48.996Z,39.95
2022-11-01T10:56:19.945Z,39.35
2022-11-01T10:59:01.645Z,39.88
2022-11-01T11:01:34.700Z,39.58
2022-11-01T11:04:04.026Z,39.27
2022-11-01T11:06:33.764Z,39.04
2022-11-01T11:09:02.954Z,38.99
2022-11-01T11:11:40.885Z,38.58
2022-11-01T11:14:09.151Z,38.50
2022-11-01T11:16:53.708Z,38.37
2022-11-01T11:19:33.449Z,37.79
2022-11-01T11:22:02.215Z,37.91
2022-11-01T11:24:38.176Z,37.40
2022-11-01T11:27:33.767Z,37.04
2022-11-01T11:30:07.696Z,36.40
2022-11-01T11:32:39.811Z,35.80
2022-11-01T11:35:14.123Z,34.93
2022-11-01T11:38:00.939Z,34.25
2022-11-01T11:40:42.172Z,33.58
2022-11-01T11:43:21.790Z,32.67
2022-11-01T11:46:10.857Z,32.17
2022-11-01T11:49:05.636Z,31.52
2022-11-01T11:51:35.546Z,31.33
2022-11-01T11:54:12.901Z,31.07
2022-11-01T11:56:40.319Z,30.73
2022-11-01T11:59:20.449Z,30.72
2022-11-01T12:01:48.335Z,30.74
2022-11-01T12:04:17.096Z,30.59
2022-11-01T12:06:45.208Z,30.20
2022-11-01T12:09:46.692Z,29.32
2022-11-01T12:12:35.111Z,29.81
2022-11-01T12:15:03.956Z,29.78
2022-11-01T12:17:39.456Z,30.06
2022-11-01T12:20:17.756Z,29.22
2022-11-01T12:22:50.759Z,29.13
2022-11-01T12:25:19.954Z,28.06
2022-11-01T12:28:14.131Z,28.75
2022-11-01T12:30:41.915Z,29.38
2022-11-01T12:33:22.671Z,29.13
2022-11-01T12:35:52.800Z,29.34
2022-11-01T12:38:39.399Z,29.10
2022-11-01T12:41:37.450Z,29.56
2022-11-01T12:44:29.584Z,29.43
2022-11-01T12:47:15.629Z,30.11
2022-11-01T12:49:52.086Z,30.11
2022-11-01T12:52:24.985Z,30.50
2022-11-01T12:54:58.762Z,30.10
2022-11-01T12:57:26.392Z,30.03
2022-11-01T12:59:54.039Z,30.12
2022-11-01T13:02:34.224Z,29.87
2022-11-01T13:05:11.745Z,30.20
2022-11-01T13:08:03.412Z,29.82
2022-11-01T13:13:48.416Z,29.27
2022-11-01T13:16:20.109Z,29.88
2022-11-01T13:19:38.544Z,29.17
2022-11-01T13:22:13.836Z,29.55
2022-11-01T13:25:22.743Z,29.13
2022-11-01T13:28:08.647Z,29.25
2022-11-01T13:30:38.250Z,29.71
2022-11-01T13:33:17.874Z,29.53
2022-11-01T13:35:48.663Z,29.58
2022-11-01T13:38:36.266Z,28.87
2022-11-01T13:41:19.840Z,28.98
2022-11-01T13:43:52.107Z,29.21
2022-11-01T13:46:44.311Z,29.21
2022-11-01T13:49:42.889Z,28.72
2022-11-01T13:52:19.926Z,28.94
2022-11-01T13:54:50.716Z,29.09
2022-11-01T13:57:20.924Z,29.25
2022-11-01T13:59:56.115Z,28.76
2022-11-01T14:02:23.871Z,28.83
2022-11-01T14:05:03.188Z,28.48
2022-11-01T14:07:36.646Z,28.68
2022-11-01T14:10:20.583Z,28.37
2022-11-01T14:12:56.796Z,28.50
2022-11-01T14:15:28.764Z,28.55
2022-11-01T14:18:10.927Z,28.47
2022-11-01T14:20:40.415Z,28.77
2022-11-01T14:23:27.823Z,28.56
2022-11-01T14:26:20.382Z,28.81
2022-11-01T14:28:49.831Z,29.05
2022-11-01T14:31:19.172Z,29.27
2022-11-01T14:33:49.263Z,29.00
2022-11-01T14:36:19.633Z,29.30
2022-11-01T14:38:53.072Z,29.44
2022-11-01T14:41:22.970Z,29.63
2022-11-01T14:43:56.165Z,29.73
2022-11-01T14:46:27.214Z,29.88
2022-11-01T14:49:11.156Z,29.84
2022-11-01T14:51:42.463Z,29.91
2022-11-01T14:54:18.574Z,30.14
2022-11-01T14:56:52.152Z,30.18
2022-11-01T14:59:27.172Z,30.30
2022-11-01T15:02:02.412Z,30.46
2022-11-01T15:04:40.641Z,30.77
2022-11-01T15:07:27.735Z,30.85
2022-11-01T15:10:06.217Z,30.76
2022-11-01T15:12:35.820Z,30.93
2022-11-01T15:15:04.022Z,31.09
2022-11-01T15:17:34.028Z,31.11
2022-11-01T15:20:04.270Z,31.29
2022-11-01T15:22:33.336Z,31.13
2022-11-01T15:25:03.169Z,31.25
2022-11-01T15:27:42.961Z,31.55
2022-11-01T15:30:19.913Z,31.62
2022-11-01T15:32:51.031Z,31.72
2022-11-01T15:35:26.103Z,31.67
2022-11-01T15:37:54.646Z,31.71
2022-11-01T15:40:34.930Z,31.91
2022-11-01T15:43:04.105Z,31.94
2022-11-01T15:45:33.719Z,31.89
2022-11-01T15:48:07.051Z,31.94
2022-11-01T15:50:37.831Z,32.64
2022-11-01T15:53:09.443Z,32.01
2022-11-01T15:55:40.611Z,32.19
2022-11-01T15:58:13.580Z,32.24
2022-11-01T16:00:44.854Z,32.48
2022-11-01T16:03:20.739Z,32.46
2022-11-01T16:06:10.931Z,32.51
2022-11-01T16:09:01.764Z,32.67
2022-11-01T16:11:30.780Z,32.64
2022-11-01T16:14:05.521Z,32.80
2022-11-01T16:16:55.071Z,33.14
2022-11-01T16:19:36.227Z,33.05
2022-11-01T16:22:05.496Z,32.90
2022-11-01T16:24:34.217Z,33.00
2022-11-01T16:27:06.253Z,33.16
2022-11-01T16:29:46.833Z,33.20
2022-11-01T16:32:20.109Z,33.21
2022-11-01T16:34:47.574Z,33.28
2022-11-01T16:37:25.496Z,33.50
2022-11-01T16:39:53.697Z,33.31
2022-11-01T16:42:22.514Z,33.50
2022-11-01T16:44:55.381Z,33.39
2022-11-01T16:47:23.016Z,33.38
2022-11-01T16:49:52.756Z,33.70
2022-11-01T16:52:20.244Z,33.71
2022-11-01T16:54:51.210Z,33.83
2022-11-01T16:57:26.931Z,33.84
2022-11-01T16:59:54.807Z,33.87
2022-11-01T17:02:25.936Z,34.05
2022-11-01T17:05:20.780Z,34.39
2022-11-01T17:07:48.297Z,33.99
2022-11-01T17:10:23.235Z,34.15
2022-11-01T17:12:50.604Z,34.21
2022-11-01T17:15:19.628Z,34.24
2022-11-01T17:17:48.457Z,34.27
2022-11-01T17:20:22.869Z,34.40
2022-11-01T17:22:51.805Z,34.44
2022-11-01T17:25:20.353Z,34.56
2022-11-01T17:27:51.129Z,34.44
2022-11-01T17:30:19.516Z,34.63
2022-11-01T17:32:47.035Z,34.63
2022-11-01T17:35:15.337Z,34.77
2022-11-01T17:37:42.889Z,34.81
2022-11-01T17:40:21.445Z,34.98
2022-11-01T17:42:48.865Z,34.81
2022-11-01T17:45:16.573Z,34.83
2022-11-01T17:47:43.995Z,35.00
2022-11-01T17:50:16.245Z,34.89
2022-11-01T17:52:43.703Z,35.07
2022-11-01T17:55:11.796Z,35.21
2022-11-01T17:57:43.543Z,34.88
2022-11-01T18:00:11.745Z,35.21
2022-11-01T18:02:43.461Z,35.54
2022-11-01T18:05:11.363Z,35.42
2022-11-01T18:07:43.763Z,35.41
2022-11-01T18:10:20.112Z,35.57
2022-11-01T18:13:07.803Z,35.65
2022-11-01T18:15:35.168Z,35.54
2022-11-01T18:18:38.775Z,35.87
2022-11-01T18:21:39.112Z,35.87
2022-11-01T18:24:16.030Z,35.79
2022-11-01T18:26:46.063Z,35.70
2022-11-01T18:29:20.974Z,35.90
2022-11-01T18:32:03.585Z,36.14
2022-11-01T18:34:40.355Z,35.92
2022-11-01T18:37:26.047Z,35.92
2022-11-01T18:40:03.057Z,36.38
2022-11-01T18:42:30.896Z,35.94
2022-11-01T18:45:00.344Z,36.17
2022-11-01T18:47:33.442Z,36.23
2022-11-01T18:50:03.935Z,36.20
2022-11-01T18:52:33.141Z,36.34
2022-11-01T18:55:00.651Z,36.25
2022-11-01T18:57:28.986Z,36.48
2022-11-01T18:59:56.436Z,36.63
2022-11-01T19:02:27.311Z,36.36
2022-11-01T19:05:10.915Z,36.63
2022-11-01T19:08:05.019Z,36.56
2022-11-01T19:10:28.395Z,36.71
2022-11-01T19:12:56.319Z,36.51
2022-11-01T19:15:25.991Z,36.84
2022-11-01T19:17:58.816Z,36.77
2022-11-01T19:20:28.519Z,36.74
2022-11-01T19:23:05.086Z,36.97
2022-11-01T19:25:34.789Z,36.79
2022-11-01T19:28:13.061Z,37.19
2022-11-01T19:30:40.479Z,37.08
2022-11-01T19:33:37.216Z,37.57
2022-11-01T19:36:17.356Z,37.00
2022-11-01T19:38:45.732Z,37.14
2022-11-01T19:41:16.087Z,37.48
2022-11-01T19:43:43.609Z,37.14
2022-11-01T19:46:17.006Z,37.25
2022-11-01T19:48:44.277Z,38.28
2022-11-01T19:51:17.070Z,37.33
2022-11-01T19:53:45.486Z,37.43
2022-11-01T19:56:22.631Z,37.62
2022-11-01T19:59:00.600Z,37.90
2022-11-01T20:01:34.813Z,37.87
2022-11-01T20:04:27.623Z,38.04
2022-11-01T20:07:01.971Z,37.75
2022-11-01T20:09:36.156Z,37.49
2022-11-01T20:12:03.775Z,37.61
2022-11-01T20:14:34.261Z,37.63
2022-11-01T20:17:02.421Z,38.13
2022-11-01T20:19:31.418Z,37.96
2022-11-01T20:22:01.583Z,37.72
2022-11-01T20:24:30.758Z,37.85
2022-11-01T20:26:59.773Z,37.82
2022-11-01T20:29:27.414Z,37.92
2022-11-01T20:31:54.886Z,38.07
2022-11-01T20:34:22.519Z,38.00
2022-11-01T20:37:14.833Z,37.85
2022-11-01T20:39:38.138Z,37.95
2022-11-01T20:42:08.140Z,38.23
2022-11-01T20:44:35.550Z,38.35
2022-11-01T20:47:03.145Z,37.97
2022-11-01T20:49:30.578Z,38.33
2022-11-01T20:52:13.544Z,38.33
2022-11-01T20:54:46.174Z,38.24
2022-11-01T20:57:26.977Z,38.57
2022-11-01T20:59:56.087Z,38.53
2022-11-01T21:02:23.568Z,38.37
2022-11-01T21:05:07.387Z,38.81
2022-11-01T21:07:34.861Z,38.52
2022-11-01T21:10:27.532Z,39.23
2022-11-01T21:12:55.289Z,38.47
2022-11-01T21:15:36.126Z,38.79
2022-11-01T21:18:12.495Z,38.59
2022-11-01T21:20:49.490Z,38.92
2022-11-01T21:23:35.669Z,39.05
2022-11-01T21:26:21.552Z,39.47
2022-11-01T21:29:16.385Z,39.74
2022-11-01T21:31:44.189Z,39.22
2022-11-01T21:34:12.784Z,39.22
2022-11-01T21:36:47.025Z,39.44
2022-11-01T21:39:19.735Z,39.49
2022-11-01T21:41:50.923Z,38.99
2022-11-01T21:44:18.908Z,39.40
2022-11-01T21:46:50.915Z,39.21
2022-11-01T21:49:32.163Z,39.61
2022-11-01T21:52:01.616Z,39.17
2022-11-01T21:54:30.673Z,39.70
2022-11-01T21:56:58.132Z,39.60
2022-11-01T21:59:27.462Z,39.60
2022-11-01T22:01:56.285Z,39.46
2022-11-01T22:04:28.677Z,39.96
2022-11-01T22:07:01.799Z,39.71
2022-11-01T22:09:31.123Z,40.03
2022-11-01T22:11:59.318Z,39.44
2022-11-01T22:14:26.894Z,39.57
2022-11-01T22:16:54.338Z,39.88
2022-11-01T22:19:21.951Z,39.91
2022-11-01T22:21:49.385Z,39.74
2022-11-01T22:24:17.123Z,40.08
2022-11-01T22:26:44.734Z,39.94
2022-11-01T22:29:13.242Z,40.33
2022-11-01T22:31:40.614Z,39.99
2022-11-01T22:34:08.141Z,40.34
2022-11-01T22:36:36.558Z,40.11
2022-11-01T22:39:21.533Z,40.72
2022-11-01T22:41:49.230Z,40.39
2022-11-01T22:44:17.982Z,40.05
2022-11-01T22:46:56.889Z,40.39
2022-11-01T22:49:38.123Z,40.67
2022-11-01T22:52:16.039Z,40.32
2022-11-01T22:54:48.853Z,40.48
2022-11-01T22:57:24.080Z,40.30
2022-11-01T22:59:53.489Z,40.53
2022-11-01T23:02:31.069Z,40.67
2022-11-01T23:05:24.929Z,41.41
2022-11-01T23:07:57.736Z,40.72
2022-11-01T23:10:35.294Z,40.77
2022-11-01T23:13:27.677Z,40.76
2022-11-01T23:16:00.172Z,40.91
2022-11-01T23:18:32.863Z,40.83
2022-11-01T23:21:03.330Z,41.02
2022-11-01T23:23:30.869Z,41.08
2022-11-01T23:26:00.095Z,40.80
2022-11-01T23:28:27.980Z,40.80
2022-11-01T23:30:55.477Z,40.83
2022-11-01T23:33:26.908Z,41.20
2022-11-01T23:35:56.744Z,41.17
2022-11-01T23:38:48.837Z,41.79
2022-11-01T23:41:42.945Z,41.07
2022-11-01T23:44:18.905Z,41.19
2022-11-01T23:46:46.301Z,40.92
2022-11-01T23:49:19.022Z,41.25
2022-11-01T23:51:46.578Z,41.06
2022-11-01T23:54:40.921Z,41.62
2022-11-01T23:57:19.889Z,41.04
2022-11-01T23:59:48.570Z,41.27
